sensor_id;sensor_type;location;lat;lon;timestamp;temperature;humidity
10583;DHT22;33679;51.218;6.786;2023-02-02T00:02:21;11.00;99.90
10583;DHT22;33679;51.218;6.786;2023-02-02T00:04:56;11.10;99.90
10583;DHT22;33679;51.218;6.786;2023-02-02T00:07:29;11.10;99.90
10583;DHT22;33679;51.218;6.786;2023-02-02T00:10:03;11.10;99.90
10583;DHT22;33679;51.218;6.786;2023-02-02T00:12:36;11.10;99.90
10583;DHT22;33679;51.218;6.786;2023-02-02T00:15:09;11.10;99.90
10583;DHT22;33679;51.218;6.786;2023-02-02T00:17:42;11.00;99.90
10583;DHT22;33679;51.218;6.786;2023-02-02T00:20:17;11.00;99.90
10583;DHT22;33679;51.218;6.786;2023-02-02T00:22:54;11.00;99.90
10583;DHT22;33679;51.218;6.786;2023-02-02T00:25:30;11.10;99.90
10583;DHT22;33679;51.218;6.786;2023-02-02T00:28:03;11.00;99.90
10583;DHT22;33679;51.218;6.786;2023-02-02T00:30:36;11.00;99.90
10583;DHT22;33679;51.218;6.786;2023-02-02T00:33:09;11.00;99.90
10583;DHT22;33679;51.218;6.786;2023-02-02T00:35:42;11.00;99.90
10583;DHT22;33679;51.218;6.786;2023-02-02T00:38:14;11.00;99.90
10583;DHT22;33679;51.218;6.786;2023-02-02T00:40:51;11.10;99.90
10583;DHT22;33679;51.218;6.786;2023-02-02T00:43:24;11.10;99.90
10583;DHT22;33679;51.218;6.786;2023-02-02T00:45:57;11.10;99.90
10583;DHT22;33679;51.218;6.786;2023-02-02T00:48:31;11.10;99.90
10583;DHT22;33679;51.218;6.786;2023-02-02T00:51:06;11.00;99.90
10583;DHT22;33679;51.218;6.786;2023-02-02T00:53:40;11.10;99.90
10583;DHT22;33679;51.218;6.786;2023-02-02T00:56:14;11.10;99.90
10583;DHT22;33679;51.218;6.786;2023-02-02T00:58:46;11.10;99.90
10583;DHT22;33679;51.218;6.786;2023-02-02T01:01:20;11.10;99.90
10583;DHT22;33679;51.218;6.786;2023-02-02T01:03:55;11.10;99.90
10583;DHT22;33679;51.218;6.786;2023-02-02T01:06:31;11.10;99.90
10583;DHT22;33679;51.218;6.786;2023-02-02T01:09:07;11.10;99.90
10583;DHT22;33679;51.218;6.786;2023-02-02T01:11:41;11.10;99.90
10583;DHT22;33679;51.218;6.786;2023-02-02T01:14:14;11.10;99.90
10583;DHT22;33679;51.218;6.786;2023-02-02T01:17:00;11.10;99.90
10583;DHT22;33679;51.218;6.786;2023-02-02T01:19:47;11.20;99.90
10583;DHT22;33679;51.218;6.786;2023-02-02T01:22:20;11.20;99.90
10583;DHT22;33679;51.218;6.786;2023-02-02T01:24:53;11.20;99.90
10583;DHT22;33679;51.218;6.786;2023-02-02T01:27:28;11.20;99.90
10583;DHT22;33679;51.218;6.786;2023-02-02T01:30:00;11.10;99.90
10583;DHT22;33679;51.218;6.786;2023-02-02T01:32:33;11.20;99.90
10583;DHT22;33679;51.218;6.786;2023-02-02T01:35:06;11.10;99.90
10583;DHT22;33679;51.218;6.786;2023-02-02T01:37:40;11.00;99.90
10583;DHT22;33679;51.218;6.786;2023-02-02T01:40:13;11.00;99.90
10583;DHT22;33679;51.218;6.786;2023-02-02T01:42:47;11.00;99.90
10583;DHT22;33679;51.218;6.786;2023-02-02T01:45:23;11.00;99.90
10583;DHT22;33679;51.218;6.786;2023-02-02T01:47:58;11.00;99.90
10583;DHT22;33679;51.218;6.786;2023-02-02T01:50:33;11.00;99.90
10583;DHT22;33679;51.218;6.786;2023-02-02T01:53:07;11.00;99.90
10583;DHT22;33679;51.218;6.786;2023-02-02T01:55:45;11.00;99.90
10583;DHT22;33679;51.218;6.786;2023-02-02T01:58:21;11.00;99.90
10583;DHT22;33679;51.218;6.786;2023-02-02T02:01:02;11.00;99.90
10583;DHT22;33679;51.218;6.786;2023-02-02T02:03:36;11.00;99.90
10583;DHT22;33679;51.218;6.786;2023-02-02T02:06:12;11.00;99.90
10583;DHT22;33679;51.218;6.786;2023-02-02T02:08:51;11.00;99.90
10583;DHT22;33679;51.218;6.786;2023-02-02T02:11:30;11.00;99.90
10583;DHT22;33679;51.218;6.786;2023-02-02T02:14:06;11.00;99.90
10583;DHT22;33679;51.218;6.786;2023-02-02T02:17:17;11.00;99.90
10583;DHT22;33679;51.218;6.786;2023-02-02T02:24:10;11.00;99.90
10583;DHT22;33679;51.218;6.786;2023-02-02T02:27:37;11.00;99.90
10583;DHT22;33679;51.218;6.786;2023-02-02T02:30:37;10.90;99.90
10583;DHT22;33679;51.218;6.786;2023-02-02T02:33:15;10.80;99.90
10583;DHT22;33679;51.218;6.786;2023-02-02T02:35:59;10.80;99.90
10583;DHT22;33679;51.218;6.786;2023-02-02T02:38:36;10.80;99.90
10583;DHT22;33679;51.218;6.786;2023-02-02T02:41:20;10.80;99.90
10583;DHT22;33679;51.218;6.786;2023-02-02T02:43:56;10.80;99.90
10583;DHT22;33679;51.218;6.786;2023-02-02T02:46:31;10.90;99.90
10583;DHT22;33679;51.218;6.786;2023-02-02T02:49:08;10.90;99.90
10583;DHT22;33679;51.218;6.786;2023-02-02T02:51:44;10.90;99.90
10583;DHT22;33679;51.218;6.786;2023-02-02T02:54:26;10.90;99.90
10583;DHT22;33679;51.218;6.786;2023-02-02T02:57:26;10.90;99.90
10583;DHT22;33679;51.218;6.786;2023-02-02T03:00:29;10.90;99.90
10583;DHT22;33679;51.218;6.786;2023-02-02T03:03:19;10.90;99.90
10583;DHT22;33679;51.218;6.786;2023-02-02T03:06:01;10.90;99.90
10583;DHT22;33679;51.218;6.786;2023-02-02T03:08:39;10.90;99.90
10583;DHT22;33679;51.218;6.786;2023-02-02T03:11:15;10.80;99.90
10583;DHT22;33679;51.218;6.786;2023-02-02T03:13:49;10.80;99.90
10583;DHT22;33679;51.218;6.786;2023-02-02T03:16:22;10.80;99.90
10583;DHT22;33679;51.218;6.786;2023-02-02T03:18:56;10.80;99.90
10583;DHT22;33679;51.218;6.786;2023-02-02T03:21:36;10.80;99.90
10583;DHT22;33679;51.218;6.786;2023-02-02T03:24:09;10.80;99.90
10583;DHT22;33679;51.218;6.786;2023-02-02T03:26:42;10.80;99.90
10583;DHT22;33679;51.218;6.786;2023-02-02T03:29:16;10.80;99.90
10583;DHT22;33679;51.218;6.786;2023-02-02T03:31:51;10.80;99.90
10583;DHT22;33679;51.218;6.786;2023-02-02T03:34:23;10.80;99.90
10583;DHT22;33679;51.218;6.786;2023-02-02T03:36:57;10.90;99.90
10583;DHT22;33679;51.218;6.786;2023-02-02T03:39:29;10.80;99.90
10583;DHT22;33679;51.218;6.786;2023-02-02T03:42:02;10.80;99.90
10583;DHT22;33679;51.218;6.786;2023-02-02T03:44:34;10.90;99.90
10583;DHT22;33679;51.218;6.786;2023-02-02T03:47:07;10.80;99.90
10583;DHT22;33679;51.218;6.786;2023-02-02T03:49:39;10.80;99.90
10583;DHT22;33679;51.218;6.786;2023-02-02T03:52:13;10.80;99.90
10583;DHT22;33679;51.218;6.786;2023-02-02T03:54:45;10.80;99.90
10583;DHT22;33679;51.218;6.786;2023-02-02T03:57:17;10.70;99.90
10583;DHT22;33679;51.218;6.786;2023-02-02T03:59:50;10.80;99.90
10583;DHT22;33679;51.218;6.786;2023-02-02T04:02:22;10.80;99.90
10583;DHT22;33679;51.218;6.786;2023-02-02T04:04:57;10.80;99.90
10583;DHT22;33679;51.218;6.786;2023-02-02T04:07:31;10.80;99.90
10583;DHT22;33679;51.218;6.786;2023-02-02T04:10:04;10.80;99.90
10583;DHT22;33679;51.218;6.786;2023-02-02T04:12:37;10.80;99.90
10583;DHT22;33679;51.218;6.786;2023-02-02T04:15:09;10.90;99.90
10583;DHT22;33679;51.218;6.786;2023-02-02T04:17:42;10.90;99.90
10583;DHT22;33679;51.218;6.786;2023-02-02T04:20:17;10.90;99.90
10583;DHT22;33679;51.218;6.786;2023-02-02T04:22:52;10.90;99.90
10583;DHT22;33679;51.218;6.786;2023-02-02T04:25:25;10.90;99.90
10583;DHT22;33679;51.218;6.786;2023-02-02T04:27:59;10.90;99.90
10583;DHT22;33679;51.218;6.786;2023-02-02T04:30:32;10.90;99.90
10583;DHT22;33679;51.218;6.786;2023-02-02T04:33:06;10.90;99.90
10583;DHT22;33679;51.218;6.786;2023-02-02T04:35:38;10.90;99.90
10583;DHT22;33679;51.218;6.786;2023-02-02T04:38:16;10.90;99.90
10583;DHT22;33679;51.218;6.786;2023-02-02T04:40:49;10.90;99.90
10583;DHT22;33679;51.218;6.786;2023-02-02T04:43:22;10.90;99.90
10583;DHT22;33679;51.218;6.786;2023-02-02T04:45:55;10.90;99.90
10583;DHT22;33679;51.218;6.786;2023-02-02T04:48:28;10.90;99.90
10583;DHT22;33679;51.218;6.786;2023-02-02T04:51:02;10.90;99.90
10583;DHT22;33679;51.218;6.786;2023-02-02T04:53:39;10.90;99.90
10583;DHT22;33679;51.218;6.786;2023-02-02T04:56:14;10.90;99.90
10583;DHT22;33679;51.218;6.786;2023-02-02T04:58:47;10.90;99.90
10583;DHT22;33679;51.218;6.786;2023-02-02T05:01:22;10.90;99.90
10583;DHT22;33679;51.218;6.786;2023-02-02T05:03:56;10.90;99.90
10583;DHT22;33679;51.218;6.786;2023-02-02T05:06:31;11.00;99.90
10583;DHT22;33679;51.218;6.786;2023-02-02T05:09:05;11.00;99.90
10583;DHT22;33679;51.218;6.786;2023-02-02T05:11:39;11.00;99.90
10583;DHT22;33679;51.218;6.786;2023-02-02T05:14:14;11.00;99.90
10583;DHT22;33679;51.218;6.786;2023-02-02T05:16:48;10.90;99.90
10583;DHT22;33679;51.218;6.786;2023-02-02T05:19:24;10.90;99.90
10583;DHT22;33679;51.218;6.786;2023-02-02T05:21:59;10.90;99.90
10583;DHT22;33679;51.218;6.786;2023-02-02T05:24:33;10.90;99.90
10583;DHT22;33679;51.218;6.786;2023-02-02T05:27:05;10.90;99.90
10583;DHT22;33679;51.218;6.786;2023-02-02T05:29:38;10.90;99.90
10583;DHT22;33679;51.218;6.786;2023-02-02T05:32:10;10.80;99.90
10583;DHT22;33679;51.218;6.786;2023-02-02T05:34:43;10.80;99.90
10583;DHT22;33679;51.218;6.786;2023-02-02T05:37:17;10.80;99.90
10583;DHT22;33679;51.218;6.786;2023-02-02T05:39:57;10.80;99.90
10583;DHT22;33679;51.218;6.786;2023-02-02T05:42:32;10.80;99.90
10583;DHT22;33679;51.218;6.786;2023-02-02T05:45:07;10.80;99.90
10583;DHT22;33679;51.218;6.786;2023-02-02T05:47:39;10.80;99.90
10583;DHT22;33679;51.218;6.786;2023-02-02T05:50:12;10.80;99.90
10583;DHT22;33679;51.218;6.786;2023-02-02T05:52:48;10.70;99.90
10583;DHT22;33679;51.218;6.786;2023-02-02T05:55:22;10.80;99.90
10583;DHT22;33679;51.218;6.786;2023-02-02T05:57:54;10.80;99.90
10583;DHT22;33679;51.218;6.786;2023-02-02T06:00:29;10.80;99.90
10583;DHT22;33679;51.218;6.786;2023-02-02T06:03:05;10.80;99.90
10583;DHT22;33679;51.218;6.786;2023-02-02T06:05:37;10.80;99.90
10583;DHT22;33679;51.218;6.786;2023-02-02T06:08:10;10.80;99.90
10583;DHT22;33679;51.218;6.786;2023-02-02T06:10:48;10.80;99.90
10583;DHT22;33679;51.218;6.786;2023-02-02T06:13:21;10.80;99.90
10583;DHT22;33679;51.218;6.786;2023-02-02T06:15:57;10.80;99.90
10583;DHT22;33679;51.218;6.786;2023-02-02T06:18:29;10.70;99.90
10583;DHT22;33679;51.218;6.786;2023-02-02T06:21:06;10.70;99.90
10583;DHT22;33679;51.218;6.786;2023-02-02T06:23:39;10.80;99.90
10583;DHT22;33679;51.218;6.786;2023-02-02T06:26:17;10.80;99.90
10583;DHT22;33679;51.218;6.786;2023-02-02T06:28:52;10.80;99.90
10583;DHT22;33679;51.218;6.786;2023-02-02T06:31:25;10.90;99.90
10583;DHT22;33679;51.218;6.786;2023-02-02T06:33:58;10.80;99.90
10583;DHT22;33679;51.218;6.786;2023-02-02T06:36:32;10.90;99.90
10583;DHT22;33679;51.218;6.786;2023-02-02T06:39:05;10.90;99.90
10583;DHT22;33679;51.218;6.786;2023-02-02T06:41:39;10.90;99.90
10583;DHT22;33679;51.218;6.786;2023-02-02T06:44:14;10.80;99.90
10583;DHT22;33679;51.218;6.786;2023-02-02T06:46:47;10.90;99.90
10583;DHT22;33679;51.218;6.786;2023-02-02T06:49:22;10.80;99.90
10583;DHT22;33679;51.218;6.786;2023-02-02T06:51:57;10.70;99.90
10583;DHT22;33679;51.218;6.786;2023-02-02T06:54:29;10.70;99.90
10583;DHT22;33679;51.218;6.786;2023-02-02T06:57:03;10.70;99.90
10583;DHT22;33679;51.218;6.786;2023-02-02T06:59:35;10.70;99.90
10583;DHT22;33679;51.218;6.786;2023-02-02T07:02:10;10.80;99.90
10583;DHT22;33679;51.218;6.786;2023-02-02T07:04:43;10.70;99.90
10583;DHT22;33679;51.218;6.786;2023-02-02T07:07:15;10.70;99.90
10583;DHT22;33679;51.218;6.786;2023-02-02T07:09:47;10.70;99.90
10583;DHT22;33679;51.218;6.786;2023-02-02T07:12:21;10.70;99.90
10583;DHT22;33679;51.218;6.786;2023-02-02T07:14:54;10.70;99.90
10583;DHT22;33679;51.218;6.786;2023-02-02T07:17:27;10.70;99.90
10583;DHT22;33679;51.218;6.786;2023-02-02T07:19:59;10.60;99.90
10583;DHT22;33679;51.218;6.786;2023-02-02T07:22:31;10.60;99.90
10583;DHT22;33679;51.218;6.786;2023-02-02T07:25:04;10.60;99.90
10583;DHT22;33679;51.218;6.786;2023-02-02T07:27:40;10.60;99.90
10583;DHT22;33679;51.218;6.786;2023-02-02T07:30:13;10.50;99.90
10583;DHT22;33679;51.218;6.786;2023-02-02T07:32:47;10.60;99.90
10583;DHT22;33679;51.218;6.786;2023-02-02T07:35:19;10.50;99.90
10583;DHT22;33679;51.218;6.786;2023-02-02T07:37:52;10.50;99.90
10583;DHT22;33679;51.218;6.786;2023-02-02T07:40:25;10.50;99.90
10583;DHT22;33679;51.218;6.786;2023-02-02T07:42:58;10.50;99.90
10583;DHT22;33679;51.218;6.786;2023-02-02T07:45:32;10.50;99.90
10583;DHT22;33679;51.218;6.786;2023-02-02T07:48:05;10.50;99.90
10583;DHT22;33679;51.218;6.786;2023-02-02T07:50:39;10.60;99.90
10583;DHT22;33679;51.218;6.786;2023-02-02T07:53:12;10.60;99.90
10583;DHT22;33679;51.218;6.786;2023-02-02T07:55:46;10.60;99.90
10583;DHT22;33679;51.218;6.786;2023-02-02T07:58:20;10.60;99.90
10583;DHT22;33679;51.218;6.786;2023-02-02T08:00:52;10.60;99.90
10583;DHT22;33679;51.218;6.786;2023-02-02T08:03:25;10.60;99.90
10583;DHT22;33679;51.218;6.786;2023-02-02T08:05:58;10.60;99.90
10583;DHT22;33679;51.218;6.786;2023-02-02T08:08:31;10.70;99.90
10583;DHT22;33679;51.218;6.786;2023-02-02T08:11:03;10.70;99.90
10583;DHT22;33679;51.218;6.786;2023-02-02T08:13:43;10.70;99.90
10583;DHT22;33679;51.218;6.786;2023-02-02T08:16:23;10.70;99.90
10583;DHT22;33679;51.218;6.786;2023-02-02T08:18:56;10.70;99.90
10583;DHT22;33679;51.218;6.786;2023-02-02T08:21:32;10.70;99.90
10583;DHT22;33679;51.218;6.786;2023-02-02T08:24:07;10.70;99.90
10583;DHT22;33679;51.218;6.786;2023-02-02T08:26:44;10.80;99.90
10583;DHT22;33679;51.218;6.786;2023-02-02T08:29:17;10.80;99.90
10583;DHT22;33679;51.218;6.786;2023-02-02T08:31:50;10.80;99.90
10583;DHT22;33679;51.218;6.786;2023-02-02T08:34:23;10.90;99.90
10583;DHT22;33679;51.218;6.786;2023-02-02T08:36:56;10.90;99.90
10583;DHT22;33679;51.218;6.786;2023-02-02T08:39:29;10.90;99.90
10583;DHT22;33679;51.218;6.786;2023-02-02T08:42:02;10.80;99.90
10583;DHT22;33679;51.218;6.786;2023-02-02T08:44:38;10.90;99.90
10583;DHT22;33679;51.218;6.786;2023-02-02T08:47:11;10.90;99.90
10583;DHT22;33679;51.218;6.786;2023-02-02T08:49:43;11.00;99.90
10583;DHT22;33679;51.218;6.786;2023-02-02T08:52:16;11.00;99.90
10583;DHT22;33679;51.218;6.786;2023-02-02T08:54:49;11.00;99.90
10583;DHT22;33679;51.218;6.786;2023-02-02T08:57:23;11.00;99.90
10583;DHT22;33679;51.218;6.786;2023-02-02T08:59:57;11.00;99.90
10583;DHT22;33679;51.218;6.786;2023-02-02T09:02:30;11.00;99.90
10583;DHT22;33679;51.218;6.786;2023-02-02T09:05:08;11.00;99.90
10583;DHT22;33679;51.218;6.786;2023-02-02T09:07:44;11.00;99.90
10583;DHT22;33679;51.218;6.786;2023-02-02T09:10:20;11.00;99.90
10583;DHT22;33679;51.218;6.786;2023-02-02T09:12:52;11.00;99.90
10583;DHT22;33679;51.218;6.786;2023-02-02T09:15:26;11.00;99.90
10583;DHT22;33679;51.218;6.786;2023-02-02T09:18:00;11.00;99.90
10583;DHT22;33679;51.218;6.786;2023-02-02T09:20:32;11.00;99.90
10583;DHT22;33679;51.218;6.786;2023-02-02T09:23:04;11.00;99.90
10583;DHT22;33679;51.218;6.786;2023-02-02T09:25:37;11.00;99.90
10583;DHT22;33679;51.218;6.786;2023-02-02T09:28:09;11.00;99.90
10583;DHT22;33679;51.218;6.786;2023-02-02T09:30:44;11.00;99.90
10583;DHT22;33679;51.218;6.786;2023-02-02T09:33:18;11.00;99.90
10583;DHT22;33679;51.218;6.786;2023-02-02T09:35:51;11.00;99.90
10583;DHT22;33679;51.218;6.786;2023-02-02T09:38:23;11.00;99.90
10583;DHT22;33679;51.218;6.786;2023-02-02T09:40:58;11.00;99.90
10583;DHT22;33679;51.218;6.786;2023-02-02T09:43:41;11.10;99.90
10583;DHT22;33679;51.218;6.786;2023-02-02T09:46:25;11.10;99.90
10583;DHT22;33679;51.218;6.786;2023-02-02T09:49:02;11.00;99.90
10583;DHT22;33679;51.218;6.786;2023-02-02T09:51:39;11.00;99.90
10583;DHT22;33679;51.218;6.786;2023-02-02T09:54:16;11.00;99.90
10583;DHT22;33679;51.218;6.786;2023-02-02T09:56:52;11.00;99.90
10583;DHT22;33679;51.218;6.786;2023-02-02T09:59:32;11.00;99.90
10583;DHT22;33679;51.218;6.786;2023-02-02T10:02:14;11.00;99.90
10583;DHT22;33679;51.218;6.786;2023-02-02T10:04:51;11.00;99.90
10583;DHT22;33679;51.218;6.786;2023-02-02T10:07:32;11.00;99.90
10583;DHT22;33679;51.218;6.786;2023-02-02T10:10:11;11.10;99.90
10583;DHT22;33679;51.218;6.786;2023-02-02T10:12:52;11.00;99.90
10583;DHT22;33679;51.218;6.786;2023-02-02T10:15:32;11.00;99.90
10583;DHT22;33679;51.218;6.786;2023-02-02T10:18:15;11.00;99.90
10583;DHT22;33679;51.218;6.786;2023-02-02T10:20:55;11.00;99.90
10583;DHT22;33679;51.218;6.786;2023-02-02T10:23:32;11.00;99.90
10583;DHT22;33679;51.218;6.786;2023-02-02T10:26:13;11.00;99.90
10583;DHT22;33679;51.218;6.786;2023-02-02T10:28:57;11.00;99.90
10583;DHT22;33679;51.218;6.786;2023-02-02T10:31:49;11.00;99.90
10583;DHT22;33679;51.218;6.786;2023-02-02T10:34:34;11.10;99.90
10583;DHT22;33679;51.218;6.786;2023-02-02T10:37:25;11.20;99.90
10583;DHT22;33679;51.218;6.786;2023-02-02T10:40:13;11.20;99.90
10583;DHT22;33679;51.218;6.786;2023-02-02T10:43:01;11.20;99.90
10583;DHT22;33679;51.218;6.786;2023-02-02T10:45:55;11.20;99.90
10583;DHT22;33679;51.218;6.786;2023-02-02T10:48:32;11.20;99.90
10583;DHT22;33679;51.218;6.786;2023-02-02T10:51:13;11.20;99.90
10583;DHT22;33679;51.218;6.786;2023-02-02T10:54:01;11.20;99.90
10583;DHT22;33679;51.218;6.786;2023-02-02T10:56:40;11.20;99.90
10583;DHT22;33679;51.218;6.786;2023-02-02T10:59:28;11.20;99.90
10583;DHT22;33679;51.218;6.786;2023-02-02T11:02:01;11.30;99.90
10583;DHT22;33679;51.218;6.786;2023-02-02T11:04:35;11.20;99.90
10583;DHT22;33679;51.218;6.786;2023-02-02T11:07:27;11.30;99.90
10583;DHT22;33679;51.218;6.786;2023-02-02T11:09:59;11.30;99.90
10583;DHT22;33679;51.218;6.786;2023-02-02T11:12:34;11.30;99.90
10583;DHT22;33679;51.218;6.786;2023-02-02T11:15:22;11.30;99.90
10583;DHT22;33679;51.218;6.786;2023-02-02T11:17:56;11.30;99.90
10583;DHT22;33679;51.218;6.786;2023-02-02T11:20:47;11.30;99.90
10583;DHT22;33679;51.218;6.786;2023-02-02T11:23:21;11.40;99.90
10583;DHT22;33679;51.218;6.786;2023-02-02T11:25:57;11.40;99.90
10583;DHT22;33679;51.218;6.786;2023-02-02T11:28:33;11.40;99.90
10583;DHT22;33679;51.218;6.786;2023-02-02T11:31:06;11.40;99.90
10583;DHT22;33679;51.218;6.786;2023-02-02T11:33:39;11.50;99.90
10583;DHT22;33679;51.218;6.786;2023-02-02T11:36:18;11.40;99.90
10583;DHT22;33679;51.218;6.786;2023-02-02T11:39:14;11.50;99.90
10583;DHT22;33679;51.218;6.786;2023-02-02T11:41:46;11.40;99.90
10583;DHT22;33679;51.218;6.786;2023-02-02T11:44:24;11.40;99.90
10583;DHT22;33679;51.218;6.786;2023-02-02T11:46:57;11.30;99.90
10583;DHT22;33679;51.218;6.786;2023-02-02T11:49:36;11.30;99.90
10583;DHT22;33679;51.218;6.786;2023-02-02T11:52:15;11.30;99.90
10583;DHT22;33679;51.218;6.786;2023-02-02T11:54:51;11.40;99.90
10583;DHT22;33679;51.218;6.786;2023-02-02T11:57:26;11.30;99.90
10583;DHT22;33679;51.218;6.786;2023-02-02T12:00:15;11.40;99.90
10583;DHT22;33679;51.218;6.786;2023-02-02T12:03:23;11.40;99.90
10583;DHT22;33679;51.218;6.786;2023-02-02T12:06:17;11.30;99.90
10583;DHT22;33679;51.218;6.786;2023-02-02T12:08:54;11.30;99.90
10583;DHT22;33679;51.218;6.786;2023-02-02T12:11:41;11.40;99.90
10583;DHT22;33679;51.218;6.786;2023-02-02T12:14:28;11.50;99.90
10583;DHT22;33679;51.218;6.786;2023-02-02T12:17:11;11.50;99.90
10583;DHT22;33679;51.218;6.786;2023-02-02T12:20:04;11.50;99.90
10583;DHT22;33679;51.218;6.786;2023-02-02T12:22:58;11.60;99.90
10583;DHT22;33679;51.218;6.786;2023-02-02T12:25:53;11.50;99.90
10583;DHT22;33679;51.218;6.786;2023-02-02T12:28:42;11.50;99.90
10583;DHT22;33679;51.218;6.786;2023-02-02T12:31:24;11.60;99.90
10583;DHT22;33679;51.218;6.786;2023-02-02T12:34:07;11.60;99.90
10583;DHT22;33679;51.218;6.786;2023-02-02T12:36:48;11.50;99.90
10583;DHT22;33679;51.218;6.786;2023-02-02T12:39:33;11.50;99.90
10583;DHT22;33679;51.218;6.786;2023-02-02T12:42:31;11.60;99.90
10583;DHT22;33679;51.218;6.786;2023-02-02T12:45:35;11.50;99.90
10583;DHT22;33679;51.218;6.786;2023-02-02T12:48:20;11.60;99.90
10583;DHT22;33679;51.218;6.786;2023-02-02T12:51:12;11.60;99.90
10583;DHT22;33679;51.218;6.786;2023-02-02T12:54:51;11.60;99.90
10583;DHT22;33679;51.218;6.786;2023-02-02T12:57:37;11.70;99.90
10583;DHT22;33679;51.218;6.786;2023-02-02T13:00:27;11.80;99.90
10583;DHT22;33679;51.218;6.786;2023-02-02T13:03:19;11.80;99.90
10583;DHT22;33679;51.218;6.786;2023-02-02T13:06:12;11.80;99.90
10583;DHT22;33679;51.218;6.786;2023-02-02T13:08:51;11.80;99.90
10583;DHT22;33679;51.218;6.786;2023-02-02T13:11:35;11.80;99.90
10583;DHT22;33679;51.218;6.786;2023-02-02T13:14:11;11.80;99.90
10583;DHT22;33679;51.218;6.786;2023-02-02T13:16:52;11.70;99.90
10583;DHT22;33679;51.218;6.786;2023-02-02T13:19:30;11.80;99.90
10583;DHT22;33679;51.218;6.786;2023-02-02T13:22:07;11.80;99.90
10583;DHT22;33679;51.218;6.786;2023-02-02T13:24:42;11.80;99.90
10583;DHT22;33679;51.218;6.786;2023-02-02T13:27:18;11.80;99.90
10583;DHT22;33679;51.218;6.786;2023-02-02T13:29:53;11.80;99.90
10583;DHT22;33679;51.218;6.786;2023-02-02T13:32:30;11.70;99.90
10583;DHT22;33679;51.218;6.786;2023-02-02T13:35:14;11.80;99.90
10583;DHT22;33679;51.218;6.786;2023-02-02T13:37:54;11.80;99.90
10583;DHT22;33679;51.218;6.786;2023-02-02T13:40:33;11.80;99.90
10583;DHT22;33679;51.218;6.786;2023-02-02T13:43:18;11.80;99.90
10583;DHT22;33679;51.218;6.786;2023-02-02T13:46:02;11.80;99.90
10583;DHT22;33679;51.218;6.786;2023-02-02T13:48:45;11.70;99.90
10583;DHT22;33679;51.218;6.786;2023-02-02T13:52:06;11.70;99.90
10583;DHT22;33679;51.218;6.786;2023-02-02T14:01:13;11.70;99.90
10583;DHT22;33679;51.218;6.786;2023-02-02T14:03:52;11.60;99.90
10583;DHT22;33679;51.218;6.786;2023-02-02T14:06:34;11.60;99.90
10583;DHT22;33679;51.218;6.786;2023-02-02T14:09:21;11.60;99.90
10583;DHT22;33679;51.218;6.786;2023-02-02T14:11:59;11.60;99.90
10583;DHT22;33679;51.218;6.786;2023-02-02T14:14:38;11.60;99.90
10583;DHT22;33679;51.218;6.786;2023-02-02T14:17:48;11.60;99.90
10583;DHT22;33679;51.218;6.786;2023-02-02T14:20:46;11.60;99.90
10583;DHT22;33679;51.218;6.786;2023-02-02T14:23:52;11.60;99.90
10583;DHT22;33679;51.218;6.786;2023-02-02T14:26:43;11.60;99.90
10583;DHT22;33679;51.218;6.786;2023-02-02T14:29:34;11.70;99.90
10583;DHT22;33679;51.218;6.786;2023-02-02T14:32:28;11.80;99.90
10583;DHT22;33679;51.218;6.786;2023-02-02T14:38:12;11.80;99.90
10583;DHT22;33679;51.218;6.786;2023-02-02T14:40:55;11.80;99.90
10583;DHT22;33679;51.218;6.786;2023-02-02T14:43:33;11.80;99.90
10583;DHT22;33679;51.218;6.786;2023-02-02T14:46:32;11.90;99.90
10583;DHT22;33679;51.218;6.786;2023-02-02T14:49:09;11.90;99.90
10583;DHT22;33679;51.218;6.786;2023-02-02T14:51:50;11.90;99.90
10583;DHT22;33679;51.218;6.786;2023-02-02T14:54:34;11.90;99.90
10583;DHT22;33679;51.218;6.786;2023-02-02T14:57:26;12.00;99.90
10583;DHT22;33679;51.218;6.786;2023-02-02T14:59:59;12.00;99.90
10583;DHT22;33679;51.218;6.786;2023-02-02T15:02:33;11.90;99.90
10583;DHT22;33679;51.218;6.786;2023-02-02T15:05:36;12.00;99.90
10583;DHT22;33679;51.218;6.786;2023-02-02T15:08:23;12.00;99.90
10583;DHT22;33679;51.218;6.786;2023-02-02T15:11:02;12.00;99.90
10583;DHT22;33679;51.218;6.786;2023-02-02T15:14:12;12.10;99.90
10583;DHT22;33679;51.218;6.786;2023-02-02T15:16:46;12.00;99.90
10583;DHT22;33679;51.218;6.786;2023-02-02T15:19:45;12.00;99.90
10583;DHT22;33679;51.218;6.786;2023-02-02T15:22:42;12.00;99.90
10583;DHT22;33679;51.218;6.786;2023-02-02T15:25:43;11.90;99.90
10583;DHT22;33679;51.218;6.786;2023-02-02T15:28:20;12.00;99.90
10583;DHT22;33679;51.218;6.786;2023-02-02T15:31:01;12.00;99.90
10583;DHT22;33679;51.218;6.786;2023-02-02T15:33:38;11.90;99.90
10583;DHT22;33679;51.218;6.786;2023-02-02T15:36:13;11.90;99.90
10583;DHT22;33679;51.218;6.786;2023-02-02T15:38:49;11.90;99.90
10583;DHT22;33679;51.218;6.786;2023-02-02T15:41:24;11.90;99.90
10583;DHT22;33679;51.218;6.786;2023-02-02T15:43:57;11.80;99.90
10583;DHT22;33679;51.218;6.786;2023-02-02T15:46:33;11.80;99.90
10583;DHT22;33679;51.218;6.786;2023-02-02T15:49:25;11.90;99.90
10583;DHT22;33679;51.218;6.786;2023-02-02T15:52:07;11.90;99.90
10583;DHT22;33679;51.218;6.786;2023-02-02T15:54:50;11.90;99.90
10583;DHT22;33679;51.218;6.786;2023-02-02T15:57:30;11.90;99.90
10583;DHT22;33679;51.218;6.786;2023-02-02T16:00:24;11.90;99.90
10583;DHT22;33679;51.218;6.786;2023-02-02T16:03:02;11.90;99.90
10583;DHT22;33679;51.218;6.786;2023-02-02T16:05:43;11.80;99.90
10583;DHT22;33679;51.218;6.786;2023-02-02T16:08:24;11.80;99.90
10583;DHT22;33679;51.218;6.786;2023-02-02T16:11:02;11.80;99.90
10583;DHT22;33679;51.218;6.786;2023-02-02T16:13:41;11.80;99.90
10583;DHT22;33679;51.218;6.786;2023-02-02T16:16:24;11.80;99.90
10583;DHT22;33679;51.218;6.786;2023-02-02T16:19:15;11.70;99.90
10583;DHT22;33679;51.218;6.786;2023-02-02T16:21:52;11.70;99.90
10583;DHT22;33679;51.218;6.786;2023-02-02T16:24:28;11.70;99.90
10583;DHT22;33679;51.218;6.786;2023-02-02T16:27:05;11.70;99.90
10583;DHT22;33679;51.218;6.786;2023-02-02T16:29:39;11.60;99.90
10583;DHT22;33679;51.218;6.786;2023-02-02T16:32:26;11.60;99.90
10583;DHT22;33679;51.218;6.786;2023-02-02T16:35:00;11.60;99.90
10583;DHT22;33679;51.218;6.786;2023-02-02T16:37:35;11.60;99.90
10583;DHT22;33679;51.218;6.786;2023-02-02T16:40:16;11.60;99.90
10583;DHT22;33679;51.218;6.786;2023-02-02T16:43:04;11.60;99.90
10583;DHT22;33679;51.218;6.786;2023-02-02T16:45:45;11.60;99.90
10583;DHT22;33679;51.218;6.786;2023-02-02T16:48:33;11.60;99.90
10583;DHT22;33679;51.218;6.786;2023-02-02T16:51:24;11.60;99.90
10583;DHT22;33679;51.218;6.786;2023-02-02T16:54:00;11.60;99.90
10583;DHT22;33679;51.218;6.786;2023-02-02T16:56:36;11.60;99.90